EGDX

MOD St. Athan Airport

St. Athan, United Kingdom
METAR EGDX 220550Z AUTO 31005KT 5000 HZ NCD 11/10 Q1009
Observed Flight Rules
Apr-22 @ 05:50 UTC (an hour ago) Marginal Visual Flight Rules
Wind Visibility Clouds Conditions
310° at 5 knots 5,005 meters
  • Clear skies
  • Haze
Temperatures Readings
Current 11°C / 52°F
Dewpoint 10°C / 50°F
Humidity 94%
Altimeter 29.79" Hg
Pressure 1009 hPa
Elevation 50
METAR EGDX 220550Z AUTO 31005KT 5000 HZ NCD 11/10 Q1009
Observed Flight Rules
Apr-22 @ 05:50 UTC
(an hour ago)
MVFR
Wind Visibility
310° at 5 knots 5,005 meters
Clouds
  • Clear skies
Conditions
  • Haze
Temperature Dewpoint
11°C / 52°F 10°C / 50°F
Humidity Altimeter Pressure
94% 29.79" Hg 1009 hPa